KUIN/UIN METAR and TAF weather

Enter ICAO airport designator
Station Type Date Time Source
KUIN METAR 2019/09/20 20:54 UTC NOAA

KUIN 202054Z AUTO 15011KT 10SM FEW046 31/19 A3003 RMK AO2 SLP161 T03110194 58018


Station Type Date Time Source
KUIN Decoded METAR 2019/09/20 20:54 UTC NOAA

QUINCY MUNI. BALDWIN FIELD, IL, United States (KUIN) 39-56N 091-12W
Sep 20, 2019 - 04:54 PM EDT / 2019.09.20 2054 UTC
Wind: from the SSE (150 degrees) at 13 MPH (11 KT):0
Visibility: 10 mile(s):0
Sky conditions: mostly clear
Temperature: 88.0 F (31.1 C)
Dew Point: 66.9 F (19.4 C)
Relative Humidity: 49%
Pressure (altimeter): 30.03 in. Hg (1016 hPa)
Pressure tendency: 0.05 inches (1.8 hPa) lower than three hours ago
ob: KUIN 202054Z AUTO 15011KT 10SM FEW046 31/19 A3003 RMK AO2 SLP161 T03110194 58018
cycle: 21

Station Type Date Time Source
KUIN TAF 2019/09/20 18:36 UTC NOAA

TAF KUIN 201733Z 2018/2118 17008KT P6SM SCT250
FM210500 17009KT P6SM SCT100
FM210700 18010KT P6SM VCSH BKN060
FM211000 18011KT 6SM -SHRA VCTS BKN025CB
FM211500 19011G17KT P6SM BKN015

Example: see airport list